sensor_id;sensor_type;location;lat;lon;timestamp;temperature;humidity
59999;DHT22;45859;51.378;6.736;2022-07-30T00:02:15;17.60;99.90
59999;DHT22;45859;51.378;6.736;2022-07-30T00:04:41;17.60;99.90
59999;DHT22;45859;51.378;6.736;2022-07-30T00:07:08;17.50;99.90
59999;DHT22;45859;51.378;6.736;2022-07-30T00:09:35;17.50;99.90
59999;DHT22;45859;51.378;6.736;2022-07-30T00:12:01;17.40;99.90
59999;DHT22;45859;51.378;6.736;2022-07-30T00:14:27;17.30;99.90
59999;DHT22;45859;51.378;6.736;2022-07-30T00:16:53;17.30;99.90
59999;DHT22;45859;51.378;6.736;2022-07-30T00:19:19;17.20;99.90
59999;DHT22;45859;51.378;6.736;2022-07-30T00:21:45;17.10;99.90
59999;DHT22;45859;51.378;6.736;2022-07-30T00:24:11;17.10;99.90
59999;DHT22;45859;51.378;6.736;2022-07-30T00:26:36;17.00;99.90
59999;DHT22;45859;51.378;6.736;2022-07-30T00:29:03;17.00;99.90
59999;DHT22;45859;51.378;6.736;2022-07-30T00:31:29;16.90;99.90
59999;DHT22;45859;51.378;6.736;2022-07-30T00:33:55;16.90;99.90
59999;DHT22;45859;51.378;6.736;2022-07-30T00:36:21;16.90;99.90
59999;DHT22;45859;51.378;6.736;2022-07-30T00:38:47;16.80;99.90
59999;DHT22;45859;51.378;6.736;2022-07-30T00:41:13;16.80;99.90
59999;DHT22;45859;51.378;6.736;2022-07-30T00:43:39;16.80;99.90
59999;DHT22;45859;51.378;6.736;2022-07-30T00:46:04;16.70;99.90
59999;DHT22;45859;51.378;6.736;2022-07-30T00:48:30;16.70;99.90
59999;DHT22;45859;51.378;6.736;2022-07-30T00:50:56;16.70;99.90
59999;DHT22;45859;51.378;6.736;2022-07-30T00:53:21;16.60;99.90
59999;DHT22;45859;51.378;6.736;2022-07-30T00:55:47;16.60;99.90
59999;DHT22;45859;51.378;6.736;2022-07-30T00:58:13;16.50;99.90
59999;DHT22;45859;51.378;6.736;2022-07-30T01:00:38;16.50;99.90
59999;DHT22;45859;51.378;6.736;2022-07-30T01:03:04;16.50;99.90
59999;DHT22;45859;51.378;6.736;2022-07-30T01:05:31;16.40;99.90
59999;DHT22;45859;51.378;6.736;2022-07-30T01:07:57;16.40;99.90
59999;DHT22;45859;51.378;6.736;2022-07-30T01:10:23;16.40;99.90
59999;DHT22;45859;51.378;6.736;2022-07-30T01:12:48;16.40;99.90
59999;DHT22;45859;51.378;6.736;2022-07-30T01:15:17;16.50;99.90
59999;DHT22;45859;51.378;6.736;2022-07-30T01:17:45;16.50;99.90
59999;DHT22;45859;51.378;6.736;2022-07-30T01:20:16;16.50;99.90
59999;DHT22;45859;51.378;6.736;2022-07-30T01:26:13;16.70;99.90
59999;DHT22;45859;51.378;6.736;2022-07-30T01:28:17;16.70;99.90
59999;DHT22;45859;51.378;6.736;2022-07-30T01:30:44;16.60;99.90
59999;DHT22;45859;51.378;6.736;2022-07-30T01:33:16;16.60;99.90
59999;DHT22;45859;51.378;6.736;2022-07-30T01:35:45;16.60;99.90
59999;DHT22;45859;51.378;6.736;2022-07-30T01:38:13;16.60;99.90
59999;DHT22;45859;51.378;6.736;2022-07-30T01:40:42;16.60;99.90
59999;DHT22;45859;51.378;6.736;2022-07-30T01:43:10;16.60;99.90
59999;DHT22;45859;51.378;6.736;2022-07-30T01:45:36;16.50;99.90
59999;DHT22;45859;51.378;6.736;2022-07-30T01:48:04;16.50;99.90
59999;DHT22;45859;51.378;6.736;2022-07-30T01:50:33;16.50;99.90
59999;DHT22;45859;51.378;6.736;2022-07-30T01:53:00;16.50;99.90
59999;DHT22;45859;51.378;6.736;2022-07-30T01:55:34;16.50;99.90
59999;DHT22;45859;51.378;6.736;2022-07-30T01:58:02;16.40;99.90
59999;DHT22;45859;51.378;6.736;2022-07-30T02:00:30;16.40;99.90
59999;DHT22;45859;51.378;6.736;2022-07-30T02:02:57;16.40;99.90
59999;DHT22;45859;51.378;6.736;2022-07-30T02:05:27;16.40;99.90
59999;DHT22;45859;51.378;6.736;2022-07-30T02:08:05;16.40;99.90
59999;DHT22;45859;51.378;6.736;2022-07-30T02:10:43;16.30;99.90
59999;DHT22;45859;51.378;6.736;2022-07-30T02:13:11;16.30;99.90
59999;DHT22;45859;51.378;6.736;2022-07-30T02:15:51;16.30;99.90
59999;DHT22;45859;51.378;6.736;2022-07-30T02:18:37;16.20;99.90
59999;DHT22;45859;51.378;6.736;2022-07-30T02:21:06;16.20;99.90
59999;DHT22;45859;51.378;6.736;2022-07-30T02:23:38;16.20;99.90
59999;DHT22;45859;51.378;6.736;2022-07-30T02:26:06;16.10;99.90
59999;DHT22;45859;51.378;6.736;2022-07-30T02:28:37;16.10;99.90
59999;DHT22;45859;51.378;6.736;2022-07-30T02:31:06;16.10;99.90
59999;DHT22;45859;51.378;6.736;2022-07-30T02:33:39;16.00;99.90
59999;DHT22;45859;51.378;6.736;2022-07-30T02:36:06;16.00;99.90
59999;DHT22;45859;51.378;6.736;2022-07-30T02:38:35;16.00;99.90
59999;DHT22;45859;51.378;6.736;2022-07-30T02:41:02;16.00;99.90
59999;DHT22;45859;51.378;6.736;2022-07-30T02:43:29;16.00;99.90
59999;DHT22;45859;51.378;6.736;2022-07-30T02:45:57;16.00;99.90
59999;DHT22;45859;51.378;6.736;2022-07-30T02:48:24;16.00;99.90
59999;DHT22;45859;51.378;6.736;2022-07-30T02:50:53;16.00;99.90
59999;DHT22;45859;51.378;6.736;2022-07-30T02:53:21;15.90;99.90
59999;DHT22;45859;51.378;6.736;2022-07-30T02:55:48;15.90;99.90
59999;DHT22;45859;51.378;6.736;2022-07-30T02:58:18;15.90;99.90
59999;DHT22;45859;51.378;6.736;2022-07-30T03:00:45;15.90;99.90
59999;DHT22;45859;51.378;6.736;2022-07-30T03:03:14;15.90;99.90
59999;DHT22;45859;51.378;6.736;2022-07-30T03:05:41;15.90;99.90
59999;DHT22;45859;51.378;6.736;2022-07-30T03:08:07;15.90;99.90
59999;DHT22;45859;51.378;6.736;2022-07-30T03:10:33;15.90;99.90
59999;DHT22;45859;51.378;6.736;2022-07-30T03:13:02;15.90;99.90
59999;DHT22;45859;51.378;6.736;2022-07-30T03:15:29;15.90;99.90
59999;DHT22;45859;51.378;6.736;2022-07-30T03:17:56;15.90;99.90
59999;DHT22;45859;51.378;6.736;2022-07-30T03:20:30;15.90;99.90
59999;DHT22;45859;51.378;6.736;2022-07-30T03:22:57;15.80;99.90
59999;DHT22;45859;51.378;6.736;2022-07-30T03:25:26;15.80;99.90
59999;DHT22;45859;51.378;6.736;2022-07-30T03:27:55;15.80;99.90
59999;DHT22;45859;51.378;6.736;2022-07-30T03:30:26;15.80;99.90
59999;DHT22;45859;51.378;6.736;2022-07-30T03:32:53;15.70;99.90
59999;DHT22;45859;51.378;6.736;2022-07-30T03:35:20;15.70;99.90
59999;DHT22;45859;51.378;6.736;2022-07-30T03:37:47;15.70;99.90
59999;DHT22;45859;51.378;6.736;2022-07-30T03:40:14;15.70;99.90
59999;DHT22;45859;51.378;6.736;2022-07-30T03:42:40;15.60;99.90
59999;DHT22;45859;51.378;6.736;2022-07-30T03:45:07;15.60;99.90
59999;DHT22;45859;51.378;6.736;2022-07-30T03:47:36;15.60;99.90
59999;DHT22;45859;51.378;6.736;2022-07-30T03:50:04;15.50;99.90
59999;DHT22;45859;51.378;6.736;2022-07-30T03:52:33;15.50;99.90
59999;DHT22;45859;51.378;6.736;2022-07-30T03:55:01;15.50;99.90
59999;DHT22;45859;51.378;6.736;2022-07-30T03:57:27;15.50;99.90
59999;DHT22;45859;51.378;6.736;2022-07-30T03:59:52;15.50;99.90
59999;DHT22;45859;51.378;6.736;2022-07-30T04:02:18;15.40;99.90
59999;DHT22;45859;51.378;6.736;2022-07-30T04:04:44;15.40;99.90
59999;DHT22;45859;51.378;6.736;2022-07-30T04:07:10;15.40;99.90
59999;DHT22;45859;51.378;6.736;2022-07-30T04:09:36;15.40;99.90
59999;DHT22;45859;51.378;6.736;2022-07-30T04:12:02;15.30;99.90
59999;DHT22;45859;51.378;6.736;2022-07-30T04:14:42;15.30;99.90
59999;DHT22;45859;51.378;6.736;2022-07-30T04:17:20;15.40;99.90
59999;DHT22;45859;51.378;6.736;2022-07-30T04:19:56;15.40;99.90
59999;DHT22;45859;51.378;6.736;2022-07-30T04:22:28;15.40;99.90
59999;DHT22;45859;51.378;6.736;2022-07-30T04:24:55;15.50;99.90
59999;DHT22;45859;51.378;6.736;2022-07-30T04:27:22;15.50;99.90
59999;DHT22;45859;51.378;6.736;2022-07-30T04:29:51;15.50;99.90
59999;DHT22;45859;51.378;6.736;2022-07-30T04:32:17;15.60;99.90
59999;DHT22;45859;51.378;6.736;2022-07-30T04:34:47;15.60;99.90
59999;DHT22;45859;51.378;6.736;2022-07-30T04:37:15;15.80;99.90
59999;DHT22;45859;51.378;6.736;2022-07-30T04:39:41;15.80;99.90
59999;DHT22;45859;51.378;6.736;2022-07-30T04:42:07;15.90;99.90
59999;DHT22;45859;51.378;6.736;2022-07-30T04:44:33;15.90;99.90
59999;DHT22;45859;51.378;6.736;2022-07-30T04:46:59;15.90;99.90
59999;DHT22;45859;51.378;6.736;2022-07-30T04:49:26;15.90;99.90
59999;DHT22;45859;51.378;6.736;2022-07-30T04:51:53;16.00;99.90
59999;DHT22;45859;51.378;6.736;2022-07-30T04:54:20;15.90;99.90
59999;DHT22;45859;51.378;6.736;2022-07-30T04:56:48;16.00;99.90
59999;DHT22;45859;51.378;6.736;2022-07-30T04:59:15;16.00;99.90
59999;DHT22;45859;51.378;6.736;2022-07-30T05:01:45;16.00;99.90
59999;DHT22;45859;51.378;6.736;2022-07-30T05:04:13;16.00;99.90
59999;DHT22;45859;51.378;6.736;2022-07-30T05:06:40;15.90;99.90
59999;DHT22;45859;51.378;6.736;2022-07-30T05:09:07;15.90;99.90
59999;DHT22;45859;51.378;6.736;2022-07-30T05:11:33;15.80;99.90
59999;DHT22;45859;51.378;6.736;2022-07-30T05:13:59;15.70;99.90
59999;DHT22;45859;51.378;6.736;2022-07-30T05:16:25;15.80;99.90
59999;DHT22;45859;51.378;6.736;2022-07-30T05:18:51;15.80;99.90
59999;DHT22;45859;51.378;6.736;2022-07-30T05:21:16;15.80;99.90
59999;DHT22;45859;51.378;6.736;2022-07-30T05:23:42;15.90;99.90
59999;DHT22;45859;51.378;6.736;2022-07-30T05:26:08;15.90;99.90
59999;DHT22;45859;51.378;6.736;2022-07-30T05:28:34;15.90;99.90
59999;DHT22;45859;51.378;6.736;2022-07-30T05:31:00;15.90;99.90
59999;DHT22;45859;51.378;6.736;2022-07-30T05:33:26;16.00;99.90
59999;DHT22;45859;51.378;6.736;2022-07-30T05:35:51;16.00;99.90
59999;DHT22;45859;51.378;6.736;2022-07-30T05:38:17;16.00;99.90
59999;DHT22;45859;51.378;6.736;2022-07-30T05:40:43;16.00;99.90
59999;DHT22;45859;51.378;6.736;2022-07-30T05:43:10;15.90;99.90
59999;DHT22;45859;51.378;6.736;2022-07-30T05:45:36;16.00;99.90
59999;DHT22;45859;51.378;6.736;2022-07-30T05:48:02;16.10;99.90
59999;DHT22;45859;51.378;6.736;2022-07-30T05:50:28;16.10;99.90
59999;DHT22;45859;51.378;6.736;2022-07-30T05:52:54;16.10;99.90
59999;DHT22;45859;51.378;6.736;2022-07-30T05:55:20;16.20;99.90
59999;DHT22;45859;51.378;6.736;2022-07-30T05:57:46;16.20;99.90
59999;DHT22;45859;51.378;6.736;2022-07-30T06:00:12;16.20;99.90
59999;DHT22;45859;51.378;6.736;2022-07-30T06:02:38;16.30;99.90
59999;DHT22;45859;51.378;6.736;2022-07-30T06:05:05;16.30;99.90
59999;DHT22;45859;51.378;6.736;2022-07-30T06:07:31;16.40;99.90
59999;DHT22;45859;51.378;6.736;2022-07-30T06:09:57;16.40;99.90
59999;DHT22;45859;51.378;6.736;2022-07-30T06:12:28;16.50;99.90
59999;DHT22;45859;51.378;6.736;2022-07-30T06:14:54;16.50;99.90
59999;DHT22;45859;51.378;6.736;2022-07-30T06:17:20;16.40;99.90
59999;DHT22;45859;51.378;6.736;2022-07-30T06:19:46;16.40;99.90
59999;DHT22;45859;51.378;6.736;2022-07-30T06:22:11;16.50;99.90
59999;DHT22;45859;51.378;6.736;2022-07-30T06:24:37;16.40;99.90
59999;DHT22;45859;51.378;6.736;2022-07-30T06:27:03;16.40;99.90
59999;DHT22;45859;51.378;6.736;2022-07-30T06:29:29;16.40;99.90
59999;DHT22;45859;51.378;6.736;2022-07-30T06:31:55;16.40;99.90
59999;DHT22;45859;51.378;6.736;2022-07-30T06:34:20;16.40;99.90
59999;DHT22;45859;51.378;6.736;2022-07-30T06:36:46;16.50;99.90
59999;DHT22;45859;51.378;6.736;2022-07-30T06:39:12;16.60;99.90
59999;DHT22;45859;51.378;6.736;2022-07-30T06:41:38;16.60;99.90
59999;DHT22;45859;51.378;6.736;2022-07-30T06:44:03;16.70;99.90
59999;DHT22;45859;51.378;6.736;2022-07-30T06:46:29;16.90;99.90
59999;DHT22;45859;51.378;6.736;2022-07-30T06:48:55;17.00;99.90
59999;DHT22;45859;51.378;6.736;2022-07-30T06:51:20;17.30;99.90
59999;DHT22;45859;51.378;6.736;2022-07-30T06:53:49;17.50;99.90
59999;DHT22;45859;51.378;6.736;2022-07-30T06:56:15;17.70;99.90
59999;DHT22;45859;51.378;6.736;2022-07-30T06:58:41;17.90;99.90
59999;DHT22;45859;51.378;6.736;2022-07-30T07:01:06;18.10;99.90
59999;DHT22;45859;51.378;6.736;2022-07-30T07:03:32;18.20;99.90
59999;DHT22;45859;51.378;6.736;2022-07-30T07:05:58;18.40;99.90
59999;DHT22;45859;51.378;6.736;2022-07-30T07:08:23;18.70;99.90
59999;DHT22;45859;51.378;6.736;2022-07-30T07:10:49;18.80;99.90
59999;DHT22;45859;51.378;6.736;2022-07-30T07:13:15;19.30;99.90
59999;DHT22;45859;51.378;6.736;2022-07-30T07:15:41;20.60;99.90
59999;DHT22;45859;51.378;6.736;2022-07-30T07:18:07;22.20;99.90
59999;DHT22;45859;51.378;6.736;2022-07-30T07:20:33;23.40;99.90
59999;DHT22;45859;51.378;6.736;2022-07-30T07:23:00;24.60;99.90
59999;DHT22;45859;51.378;6.736;2022-07-30T07:25:26;25.60;99.90
59999;DHT22;45859;51.378;6.736;2022-07-30T07:27:52;26.40;99.90
59999;DHT22;45859;51.378;6.736;2022-07-30T07:30:18;26.70;99.90
59999;DHT22;45859;51.378;6.736;2022-07-30T07:32:43;26.90;99.90
59999;DHT22;45859;51.378;6.736;2022-07-30T07:35:09;27.70;99.90
59999;DHT22;45859;51.378;6.736;2022-07-30T07:37:36;28.00;99.90
59999;DHT22;45859;51.378;6.736;2022-07-30T07:40:02;28.20;99.90
59999;DHT22;45859;51.378;6.736;2022-07-30T07:42:28;28.50;99.90
59999;DHT22;45859;51.378;6.736;2022-07-30T07:44:54;28.80;99.90
59999;DHT22;45859;51.378;6.736;2022-07-30T07:47:20;29.80;99.90
59999;DHT22;45859;51.378;6.736;2022-07-30T07:49:46;30.00;99.90
59999;DHT22;45859;51.378;6.736;2022-07-30T07:52:11;30.10;99.90
59999;DHT22;45859;51.378;6.736;2022-07-30T07:54:37;30.00;99.90
59999;DHT22;45859;51.378;6.736;2022-07-30T07:57:03;30.50;99.90
59999;DHT22;45859;51.378;6.736;2022-07-30T07:59:32;30.00;99.90
59999;DHT22;45859;51.378;6.736;2022-07-30T08:01:58;30.30;99.90
59999;DHT22;45859;51.378;6.736;2022-07-30T08:04:24;29.80;99.90
59999;DHT22;45859;51.378;6.736;2022-07-30T08:06:49;29.70;99.90
59999;DHT22;45859;51.378;6.736;2022-07-30T08:09:15;29.60;99.90
59999;DHT22;45859;51.378;6.736;2022-07-30T08:11:41;29.50;99.90
59999;DHT22;45859;51.378;6.736;2022-07-30T08:14:07;29.30;99.90
59999;DHT22;45859;51.378;6.736;2022-07-30T08:16:32;29.60;99.90
59999;DHT22;45859;51.378;6.736;2022-07-30T08:18:58;29.90;99.90
59999;DHT22;45859;51.378;6.736;2022-07-30T08:21:24;30.50;99.90
59999;DHT22;45859;51.378;6.736;2022-07-30T08:23:49;30.80;99.90
59999;DHT22;45859;51.378;6.736;2022-07-30T08:26:15;30.50;99.90
59999;DHT22;45859;51.378;6.736;2022-07-30T08:28:41;30.80;99.90
59999;DHT22;45859;51.378;6.736;2022-07-30T08:31:07;31.00;99.90
59999;DHT22;45859;51.378;6.736;2022-07-30T08:33:34;30.90;99.90
59999;DHT22;45859;51.378;6.736;2022-07-30T08:36:00;31.30;99.90
59999;DHT22;45859;51.378;6.736;2022-07-30T08:38:26;31.50;99.90
59999;DHT22;45859;51.378;6.736;2022-07-30T08:40:54;30.30;99.90
59999;DHT22;45859;51.378;6.736;2022-07-30T08:43:21;29.50;99.90
59999;DHT22;45859;51.378;6.736;2022-07-30T08:45:49;29.60;99.90
59999;DHT22;45859;51.378;6.736;2022-07-30T08:48:17;29.30;99.90
59999;DHT22;45859;51.378;6.736;2022-07-30T08:50:45;29.60;99.90
59999;DHT22;45859;51.378;6.736;2022-07-30T08:53:12;29.60;99.90
59999;DHT22;45859;51.378;6.736;2022-07-30T08:55:39;29.90;99.90
59999;DHT22;45859;51.378;6.736;2022-07-30T08:58:20;30.50;99.90
59999;DHT22;45859;51.378;6.736;2022-07-30T09:00:48;30.90;99.90
59999;DHT22;45859;51.378;6.736;2022-07-30T09:03:14;31.10;99.90
59999;DHT22;45859;51.378;6.736;2022-07-30T09:05:40;31.40;99.90
59999;DHT22;45859;51.378;6.736;2022-07-30T09:08:05;32.00;99.90
59999;DHT22;45859;51.378;6.736;2022-07-30T09:10:32;31.80;99.90
59999;DHT22;45859;51.378;6.736;2022-07-30T09:12:58;32.00;99.90
59999;DHT22;45859;51.378;6.736;2022-07-30T09:15:24;32.10;99.90
59999;DHT22;45859;51.378;6.736;2022-07-30T09:18:00;31.80;99.90
59999;DHT22;45859;51.378;6.736;2022-07-30T09:20:34;32.10;99.90
59999;DHT22;45859;51.378;6.736;2022-07-30T09:23:02;32.50;99.90
59999;DHT22;45859;51.378;6.736;2022-07-30T09:28:02;31.70;99.90
59999;DHT22;45859;51.378;6.736;2022-07-30T09:31:00;31.80;99.90
59999;DHT22;45859;51.378;6.736;2022-07-30T09:33:43;31.60;99.90
59999;DHT22;45859;51.378;6.736;2022-07-30T09:36:13;31.80;99.90
59999;DHT22;45859;51.378;6.736;2022-07-30T09:38:52;31.80;99.90
59999;DHT22;45859;51.378;6.736;2022-07-30T09:41:32;31.80;99.90
59999;DHT22;45859;51.378;6.736;2022-07-30T09:44:02;31.20;99.90
59999;DHT22;45859;51.378;6.736;2022-07-30T09:46:46;30.40;99.90
59999;DHT22;45859;51.378;6.736;2022-07-30T09:49:38;29.70;99.90
59999;DHT22;45859;51.378;6.736;2022-07-30T09:52:06;29.60;99.90
59999;DHT22;45859;51.378;6.736;2022-07-30T09:54:49;29.40;99.90
59999;DHT22;45859;51.378;6.736;2022-07-30T09:57:15;29.20;99.90
59999;DHT22;45859;51.378;6.736;2022-07-30T09:59:40;28.90;99.90
59999;DHT22;45859;51.378;6.736;2022-07-30T10:02:06;28.60;99.90
59999;DHT22;45859;51.378;6.736;2022-07-30T10:04:33;28.30;99.90
59999;DHT22;45859;51.378;6.736;2022-07-30T10:07:00;28.00;99.90
59999;DHT22;45859;51.378;6.736;2022-07-30T10:09:27;28.00;99.90
59999;DHT22;45859;51.378;6.736;2022-07-30T10:12:01;27.70;99.90
59999;DHT22;45859;51.378;6.736;2022-07-30T10:14:33;27.60;99.90
59999;DHT22;45859;51.378;6.736;2022-07-30T10:17:00;27.40;99.90
59999;DHT22;45859;51.378;6.736;2022-07-30T10:19:26;27.40;99.90
59999;DHT22;45859;51.378;6.736;2022-07-30T10:21:53;27.50;99.90
59999;DHT22;45859;51.378;6.736;2022-07-30T10:24:23;27.60;99.90
59999;DHT22;45859;51.378;6.736;2022-07-30T10:26:53;27.70;99.90
59999;DHT22;45859;51.378;6.736;2022-07-30T10:29:20;27.60;99.90
59999;DHT22;45859;51.378;6.736;2022-07-30T10:31:48;27.50;99.90
59999;DHT22;45859;51.378;6.736;2022-07-30T10:34:17;27.50;99.90
59999;DHT22;45859;51.378;6.736;2022-07-30T10:36:46;27.20;99.90
59999;DHT22;45859;51.378;6.736;2022-07-30T10:39:17;27.40;99.90
59999;DHT22;45859;51.378;6.736;2022-07-30T10:47:22;27.10;99.90
59999;DHT22;45859;51.378;6.736;2022-07-30T10:50:13;27.00;99.90
59999;DHT22;45859;51.378;6.736;2022-07-30T10:55:32;27.00;99.90
59999;DHT22;45859;51.378;6.736;2022-07-30T10:58:07;27.10;99.90
59999;DHT22;45859;51.378;6.736;2022-07-30T11:03:25;27.10;99.90
59999;DHT22;45859;51.378;6.736;2022-07-30T11:05:52;26.90;99.90
59999;DHT22;45859;51.378;6.736;2022-07-30T11:08:38;26.50;99.90
59999;DHT22;45859;51.378;6.736;2022-07-30T11:14:10;26.50;99.90
59999;DHT22;45859;51.378;6.736;2022-07-30T11:19:10;26.50;99.90
59999;DHT22;45859;51.378;6.736;2022-07-30T11:21:44;26.30;99.90
59999;DHT22;45859;51.378;6.736;2022-07-30T11:24:44;26.30;99.90
59999;DHT22;45859;51.378;6.736;2022-07-30T11:27:37;26.40;99.90
59999;DHT22;45859;51.378;6.736;2022-07-30T11:30:05;26.50;99.90
59999;DHT22;45859;51.378;6.736;2022-07-30T11:35:30;26.50;99.90
59999;DHT22;45859;51.378;6.736;2022-07-30T11:40:26;25.80;99.90
59999;DHT22;45859;51.378;6.736;2022-07-30T11:43:25;25.90;99.90
59999;DHT22;45859;51.378;6.736;2022-07-30T11:46:16;26.00;99.90
59999;DHT22;45859;51.378;6.736;2022-07-30T11:48:56;25.70;99.90
59999;DHT22;45859;51.378;6.736;2022-07-30T11:51:23;25.90;99.90
59999;DHT22;45859;51.378;6.736;2022-07-30T11:54:05;26.00;99.90
59999;DHT22;45859;51.378;6.736;2022-07-30T11:56:32;26.00;99.90
59999;DHT22;45859;51.378;6.736;2022-07-30T11:59:02;26.10;99.90
59999;DHT22;45859;51.378;6.736;2022-07-30T12:01:29;26.10;99.90
59999;DHT22;45859;51.378;6.736;2022-07-30T12:03:55;26.40;99.90
59999;DHT22;45859;51.378;6.736;2022-07-30T12:06:21;26.40;99.90
59999;DHT22;45859;51.378;6.736;2022-07-30T12:08:51;26.40;99.90
59999;DHT22;45859;51.378;6.736;2022-07-30T12:11:18;26.40;99.90
59999;DHT22;45859;51.378;6.736;2022-07-30T12:13:55;26.20;99.90
59999;DHT22;45859;51.378;6.736;2022-07-30T12:16:21;26.20;99.90
59999;DHT22;45859;51.378;6.736;2022-07-30T12:18:47;26.30;99.90
59999;DHT22;45859;51.378;6.736;2022-07-30T12:21:13;26.30;99.90
59999;DHT22;45859;51.378;6.736;2022-07-30T12:24:01;26.50;99.90
59999;DHT22;45859;51.378;6.736;2022-07-30T12:26:29;26.50;99.90
59999;DHT22;45859;51.378;6.736;2022-07-30T12:28:56;26.70;99.90
59999;DHT22;45859;51.378;6.736;2022-07-30T12:31:23;26.70;99.90
59999;DHT22;45859;51.378;6.736;2022-07-30T12:33:49;26.70;99.90
59999;DHT22;45859;51.378;6.736;2022-07-30T12:36:34;26.80;99.90
59999;DHT22;45859;51.378;6.736;2022-07-30T12:39:02;26.90;99.90
59999;DHT22;45859;51.378;6.736;2022-07-30T12:41:45;26.90;99.90
59999;DHT22;45859;51.378;6.736;2022-07-30T12:44:41;27.10;99.90
59999;DHT22;45859;51.378;6.736;2022-07-30T12:47:19;27.00;99.90
59999;DHT22;45859;51.378;6.736;2022-07-30T12:49:45;26.80;99.90
59999;DHT22;45859;51.378;6.736;2022-07-30T12:52:32;26.40;99.90
59999;DHT22;45859;51.378;6.736;2022-07-30T12:55:05;26.20;99.90
59999;DHT22;45859;51.378;6.736;2022-07-30T12:57:51;26.30;99.90
59999;DHT22;45859;51.378;6.736;2022-07-30T13:00:16;26.20;99.90
59999;DHT22;45859;51.378;6.736;2022-07-30T13:02:42;26.20;99.90
59999;DHT22;45859;51.378;6.736;2022-07-30T13:05:08;26.30;99.90
59999;DHT22;45859;51.378;6.736;2022-07-30T13:07:34;26.30;99.90
59999;DHT22;45859;51.378;6.736;2022-07-30T13:10:11;26.40;99.90
59999;DHT22;45859;51.378;6.736;2022-07-30T13:12:37;26.50;99.90
59999;DHT22;45859;51.378;6.736;2022-07-30T13:15:04;26.60;99.90
59999;DHT22;45859;51.378;6.736;2022-07-30T13:17:30;26.60;99.90
59999;DHT22;45859;51.378;6.736;2022-07-30T13:19:56;26.50;99.90
59999;DHT22;45859;51.378;6.736;2022-07-30T13:22:22;26.40;99.90
59999;DHT22;45859;51.378;6.736;2022-07-30T13:24:47;26.50;99.90
59999;DHT22;45859;51.378;6.736;2022-07-30T13:27:13;26.50;99.90
59999;DHT22;45859;51.378;6.736;2022-07-30T13:29:41;26.40;99.90
59999;DHT22;45859;51.378;6.736;2022-07-30T13:32:07;26.30;99.90
59999;DHT22;45859;51.378;6.736;2022-07-30T13:34:32;26.20;99.90
59999;DHT22;45859;51.378;6.736;2022-07-30T13:36:58;26.20;99.90
59999;DHT22;45859;51.378;6.736;2022-07-30T13:39:24;26.10;99.90
59999;DHT22;45859;51.378;6.736;2022-07-30T13:41:49;26.00;99.90
59999;DHT22;45859;51.378;6.736;2022-07-30T13:44:15;25.80;99.90
59999;DHT22;45859;51.378;6.736;2022-07-30T13:46:41;25.70;99.90
59999;DHT22;45859;51.378;6.736;2022-07-30T13:49:07;25.50;99.90
59999;DHT22;45859;51.378;6.736;2022-07-30T13:51:34;25.40;99.90
59999;DHT22;45859;51.378;6.736;2022-07-30T13:54:00;25.50;99.90
59999;DHT22;45859;51.378;6.736;2022-07-30T13:56:26;25.60;99.90
59999;DHT22;45859;51.378;6.736;2022-07-30T13:58:52;25.90;99.90
59999;DHT22;45859;51.378;6.736;2022-07-30T14:01:17;26.00;99.90
59999;DHT22;45859;51.378;6.736;2022-07-30T14:03:52;26.10;99.90
59999;DHT22;45859;51.378;6.736;2022-07-30T14:06:24;26.10;99.90
59999;DHT22;45859;51.378;6.736;2022-07-30T14:08:50;26.20;99.90
59999;DHT22;45859;51.378;6.736;2022-07-30T14:11:16;26.30;99.90
59999;DHT22;45859;51.378;6.736;2022-07-30T14:13:42;26.40;99.90
59999;DHT22;45859;51.378;6.736;2022-07-30T14:16:08;26.40;99.90
59999;DHT22;45859;51.378;6.736;2022-07-30T14:18:34;26.30;99.90
59999;DHT22;45859;51.378;6.736;2022-07-30T14:21:00;26.30;99.90
59999;DHT22;45859;51.378;6.736;2022-07-30T14:23:25;26.30;99.90
59999;DHT22;45859;51.378;6.736;2022-07-30T14:25:51;26.20;99.90
59999;DHT22;45859;51.378;6.736;2022-07-30T14:28:17;26.10;99.90
59999;DHT22;45859;51.378;6.736;2022-07-30T14:30:43;26.10;99.90
59999;DHT22;45859;51.378;6.736;2022-07-30T14:33:09;26.00;99.90
59999;DHT22;45859;51.378;6.736;2022-07-30T14:35:35;25.90;99.90
59999;DHT22;45859;51.378;6.736;2022-07-30T14:38:01;25.90;99.90
59999;DHT22;45859;51.378;6.736;2022-07-30T14:40:28;26.00;99.90
59999;DHT22;45859;51.378;6.736;2022-07-30T14:42:53;25.90;99.90
59999;DHT22;45859;51.378;6.736;2022-07-30T14:45:19;25.90;99.90
59999;DHT22;45859;51.378;6.736;2022-07-30T14:47:45;25.80;99.90
59999;DHT22;45859;51.378;6.736;2022-07-30T14:50:11;25.80;99.90
59999;DHT22;45859;51.378;6.736;2022-07-30T14:52:37;25.90;99.90
59999;DHT22;45859;51.378;6.736;2022-07-30T14:55:05;25.90;99.90
59999;DHT22;45859;51.378;6.736;2022-07-30T14:57:31;25.90;99.90
59999;DHT22;45859;51.378;6.736;2022-07-30T14:59:57;25.90;99.90
59999;DHT22;45859;51.378;6.736;2022-07-30T15:02:22;25.80;99.90
59999;DHT22;45859;51.378;6.736;2022-07-30T15:04:48;25.80;99.90
59999;DHT22;45859;51.378;6.736;2022-07-30T15:07:14;25.80;99.90
59999;DHT22;45859;51.378;6.736;2022-07-30T15:09:39;25.70;99.90
59999;DHT22;45859;51.378;6.736;2022-07-30T15:12:06;25.70;99.90
59999;DHT22;45859;51.378;6.736;2022-07-30T15:14:37;25.60;99.90
59999;DHT22;45859;51.378;6.736;2022-07-30T15:17:03;25.60;99.90
59999;DHT22;45859;51.378;6.736;2022-07-30T15:19:31;25.70;99.90
59999;DHT22;45859;51.378;6.736;2022-07-30T15:21:57;25.70;99.90
59999;DHT22;45859;51.378;6.736;2022-07-30T15:24:23;25.80;99.90
59999;DHT22;45859;51.378;6.736;2022-07-30T15:26:49;25.90;99.90
59999;DHT22;45859;51.378;6.736;2022-07-30T15:29:15;25.90;99.90
59999;DHT22;45859;51.378;6.736;2022-07-30T15:31:41;26.00;99.90
59999;DHT22;45859;51.378;6.736;2022-07-30T15:34:07;26.00;99.90
59999;DHT22;45859;51.378;6.736;2022-07-30T15:36:36;26.00;99.90
59999;DHT22;45859;51.378;6.736;2022-07-30T15:39:04;25.90;99.90
59999;DHT22;45859;51.378;6.736;2022-07-30T15:41:30;26.00;99.90
59999;DHT22;45859;51.378;6.736;2022-07-30T15:43:56;25.90;99.90
59999;DHT22;45859;51.378;6.736;2022-07-30T15:46:22;26.00;99.90
59999;DHT22;45859;51.378;6.736;2022-07-30T15:48:50;26.00;99.90
59999;DHT22;45859;51.378;6.736;2022-07-30T15:51:16;26.10;99.90
59999;DHT22;45859;51.378;6.736;2022-07-30T15:53:42;26.10;99.90
59999;DHT22;45859;51.378;6.736;2022-07-30T15:56:08;26.10;99.90
59999;DHT22;45859;51.378;6.736;2022-07-30T15:58:34;26.20;99.90
59999;DHT22;45859;51.378;6.736;2022-07-30T16:01:03;26.20;99.90
59999;DHT22;45859;51.378;6.736;2022-07-30T16:03:29;26.30;99.90
59999;DHT22;45859;51.378;6.736;2022-07-30T16:05:55;26.20;99.90